Time;durP1;ratioP1;P1;durP2;ratioP2;P2;SDS_P1;SDS_P2;PMS_P1;PMS_P2;Temp;Humidity;BMP_temperature;BMP_pressure;BME280_temperature;BME280_humidity;BME280_pressure;Samples;Min_cycle;Max_cycle;Signal;HPM_P1;HPM_P2
2022/01/08 00:02:04;;;;;;;15.40;14.00;;;2.00;40.60;;;;;;6380804;27;20241;-56
2022/01/08 00:05:08;;;;;;;16.00;14.50;;;1.90;41.20;;;;;;6389252;27;20485;-56
2022/01/08 00:08:12;;;;;;;15.50;14.07;;;1.90;42.50;;;;;;6382064;27;20741;-56
2022/01/08 00:11:18;;;;;;;14.83;13.53;;;2.00;42.20;;;;;;6389057;27;20258;-56
2022/01/08 00:14:23;;;;;;;18.00;14.80;;;1.90;42.70;;;;;;6389636;27;20703;-56
2022/01/08 00:17:25;;;;;;;15.27;13.87;;;2.00;42.40;;;;;;6387690;27;20322;-56
2022/01/08 00:20:29;;;;;;;16.63;15.03;;;1.70;42.20;;;;;;6384234;27;20306;-57
2022/01/08 00:23:33;;;;;;;15.70;14.23;;;2.00;42.80;;;;;;6388944;27;20335;-57
2022/01/08 00:26:36;;;;;;;15.37;13.77;;;1.70;42.20;;;;;;6387140;27;20246;-56
2022/01/08 00:29:39;;;;;;;15.60;14.13;;;1.80;42.80;;;;;;6385025;27;20364;-56
2022/01/08 00:32:42;;;;;;;14.50;13.20;;;1.80;43.60;;;;;;6387410;27;20282;-56
2022/01/08 00:35:45;;;;;;;16.10;14.60;;;1.60;44.10;;;;;;6386905;27;20234;-57
2022/01/08 00:38:49;;;;;;;15.60;14.23;;;1.90;43.80;;;;;;6378869;27;20245;-55
2022/01/08 00:41:52;;;;;;;18.13;16.37;;;1.90;44.70;;;;;;6386789;27;20319;-56
2022/01/08 00:44:55;;;;;;;17.23;15.53;;;1.70;45.10;;;;;;6386502;27;20330;-57
2022/01/08 00:47:57;;;;;;;16.23;14.53;;;1.70;44.80;;;;;;6384652;27;20321;-57
2022/01/08 00:51:00;;;;;;;17.50;15.87;;;1.60;45.10;;;;;;6386916;27;20362;-55
2022/01/08 00:54:04;;;;;;;19.57;16.93;;;1.60;45.20;;;;;;6386139;27;20230;-56
2022/01/08 00:57:07;;;;;;;19.87;16.57;;;1.20;46.00;;;;;;6379129;27;20234;-57
2022/01/08 01:00:12;;;;;;;18.87;16.87;;;1.40;46.30;;;;;;6386052;27;20381;-56
2022/01/08 01:03:14;;;;;;;18.43;16.73;;;1.40;46.20;;;;;;6386035;27;20716;-54
2022/01/08 01:06:17;;;;;;;17.77;15.97;;;1.40;46.30;;;;;;6385228;27;20280;-56
2022/01/08 01:09:22;;;;;;;17.37;15.57;;;1.30;46.60;;;;;;6384999;27;20313;-56
2022/01/08 01:12:24;;;;;;;17.43;15.73;;;1.60;47.40;;;;;;6380067;27;20253;-56
2022/01/08 01:15:42;;;;;;;17.07;15.37;;;1.60;46.70;;;;;;6380283;27;20384;-57
2022/01/08 01:18:44;;;;;;;17.40;15.60;;;1.50;46.50;;;;;;6386275;27;20677;-57
2022/01/08 01:21:47;;;;;;;17.50;15.80;;;1.40;46.60;;;;;;6386379;27;20231;-56
2022/01/08 01:24:52;;;;;;;17.57;15.67;;;1.60;46.70;;;;;;6385167;27;20246;-57
2022/01/08 01:28:06;;;;;;;16.30;14.80;;;1.60;47.10;;;;;;6377719;27;20295;-56
2022/01/08 01:41:20;;;;;;;16.27;14.80;;;1.80;46.60;;;;;;6384221;27;20235;-57
2022/01/08 01:47:44;;;;;;;16.07;14.37;;;1.90;46.70;;;;;;6383967;27;20353;-57
2022/01/08 01:50:48;;;;;;;16.10;14.70;;;1.90;46.80;;;;;;6384935;27;20614;-56
2022/01/08 01:53:51;;;;;;;17.07;15.23;;;2.00;46.90;;;;;;6349155;27;20286;-55
2022/01/08 01:56:57;;;;;;;15.80;14.23;;;2.00;47.20;;;;;;6384320;27;20239;-56
2022/01/08 01:59:59;;;;;;;14.93;13.50;;;1.80;47.10;;;;;;6385713;27;20648;-58
2022/01/08 02:03:02;;;;;;;15.17;13.67;;;1.90;47.60;;;;;;6380680;27;20255;-59
2022/01/08 02:06:05;;;;;;;16.10;14.60;;;2.00;46.30;;;;;;6384801;27;20634;-56
2022/01/08 02:09:08;;;;;;;17.50;14.77;;;1.90;46.80;;;;;;6385030;27;20345;-57
2022/01/08 02:12:17;;;;;;;15.33;14.07;;;1.80;47.10;;;;;;6382385;27;20716;-55
2022/01/08 02:15:19;;;;;;;18.17;15.03;;;1.90;46.90;;;;;;6376917;27;20800;-56
2022/01/08 02:18:25;;;;;;;15.70;14.10;;;1.90;46.70;;;;;;6384683;27;20234;-57
2022/01/08 02:21:29;;;;;;;15.07;13.67;;;1.80;47.00;;;;;;6379292;27;20329;-57
2022/01/08 02:24:32;;;;;;;15.83;14.33;;;2.20;47.00;;;;;;6385210;27;20313;-56
2022/01/08 02:27:35;;;;;;;17.17;15.43;;;1.80;46.50;;;;;;6380599;27;20318;-57
2022/01/08 02:30:38;;;;;;;16.20;14.63;;;2.00;47.20;;;;;;6381751;27;20383;-57
2022/01/08 02:33:41;;;;;;;18.37;15.07;;;1.90;46.70;;;;;;6385431;27;20628;-57
2022/01/08 02:36:45;;;;;;;15.90;14.40;;;1.80;46.60;;;;;;6385095;27;20859;-56
2022/01/08 02:39:49;;;;;;;15.47;14.13;;;2.10;47.10;;;;;;6386218;27;20368;-57
2022/01/08 02:42:59;;;;;;;15.97;14.47;;;2.00;47.00;;;;;;6381585;27;20321;-58
2022/01/08 02:46:02;;;;;;;16.07;14.57;;;1.90;46.00;;;;;;6385351;27;20306;-57
2022/01/08 02:49:05;;;;;;;15.93;14.37;;;2.00;45.90;;;;;;6382285;27;20230;-57
2022/01/08 02:52:09;;;;;;;15.63;14.20;;;2.10;46.70;;;;;;6382132;27;20227;-56
2022/01/08 02:55:14;;;;;;;15.23;13.83;;;1.90;45.60;;;;;;6372655;27;20504;-57
2022/01/08 02:58:17;;;;;;;14.23;12.93;;;1.90;45.30;;;;;;6382397;27;20314;-58
2022/01/08 03:01:20;;;;;;;14.83;13.47;;;2.10;45.70;;;;;;6382877;27;20226;-58
2022/01/08 03:04:22;;;;;;;14.77;13.37;;;2.10;45.30;;;;;;6379495;27;20286;-56
2022/01/08 03:07:27;;;;;;;15.03;13.57;;;2.20;44.50;;;;;;6382834;27;20461;-56
2022/01/08 03:10:29;;;;;;;14.27;12.90;;;2.20;44.50;;;;;;6383396;27;20326;-56
2022/01/08 03:13:32;;;;;;;14.30;12.77;;;2.20;44.60;;;;;;6383753;27;20234;-57
2022/01/08 03:16:35;;;;;;;13.90;12.60;;;2.30;44.00;;;;;;6383191;27;20264;-56
2022/01/08 03:19:39;;;;;;;14.90;13.50;;;2.20;44.10;;;;;;6382085;27;20766;-55
2022/01/08 03:22:45;;;;;;;14.70;13.20;;;2.30;44.50;;;;;;6377197;27;22197;-56
2022/01/08 03:25:47;;;;;;;14.37;13.13;;;2.30;43.60;;;;;;6375508;27;20231;-59
2022/01/08 03:28:50;;;;;;;14.90;13.63;;;2.30;44.10;;;;;;6383268;27;20286;-58
2022/01/08 03:31:53;;;;;;;14.07;12.87;;;2.30;44.10;;;;;;6383137;27;20339;-56
2022/01/08 03:34:56;;;;;;;13.73;12.43;;;2.30;44.50;;;;;;6374945;27;20230;-56
2022/01/08 03:38:00;;;;;;;14.80;13.43;;;2.40;43.90;;;;;;6382840;27;20238;-57
2022/01/08 03:41:03;;;;;;;15.83;14.23;;;2.30;42.80;;;;;;6378418;27;20242;-58
2022/01/08 03:44:06;;;;;;;14.57;13.27;;;2.10;43.90;;;;;;6368373;27;20882;-57
2022/01/08 03:47:28;;;;;;;14.47;13.17;;;2.30;43.60;;;;;;6381489;27;20226;-57
2022/01/08 03:50:31;;;;;;;15.33;13.93;;;2.20;44.00;;;;;;6382532;27;20259;-57
2022/01/08 03:53:35;;;;;;;14.23;13.03;;;2.30;42.50;;;;;;6379652;27;20234;-57
2022/01/08 03:56:38;;;;;;;14.13;12.83;;;2.20;42.90;;;;;;6382332;27;20231;-58
2022/01/08 03:59:41;;;;;;;15.00;13.50;;;2.30;42.20;;;;;;6382090;27;20257;-56
2022/01/08 04:02:44;;;;;;;14.17;12.97;;;2.10;43.10;;;;;;6375572;27;20231;-57
2022/01/08 04:05:47;;;;;;;13.87;12.67;;;2.20;43.50;;;;;;6382306;27;20230;-56
2022/01/08 04:08:56;;;;;;;14.30;13.03;;;2.30;43.00;;;;;;6383362;27;20375;-59
2022/01/08 04:11:59;;;;;;;13.87;12.77;;;2.10;43.10;;;;;;6371431;27;20322;-55
2022/01/08 04:15:08;;;;;;;14.20;12.90;;;2.00;41.50;;;;;;6377897;27;20607;-56
2022/01/08 04:18:11;;;;;;;12.97;11.87;;;2.20;42.10;;;;;;6380964;27;20368;-56
2022/01/08 04:21:48;;;;;;;13.87;12.60;;;2.20;42.60;;;;;;6381176;27;20326;-57
2022/01/08 04:24:43;;;;;;;14.40;13.10;;;2.20;42.20;;;;;;6373311;27;20441;-57
2022/01/08 04:27:47;;;;;;;13.90;12.60;;;2.30;42.20;;;;;;6382215;27;20234;-57
2022/01/08 04:30:50;;;;;;;13.57;12.37;;;2.30;42.10;;;;;;6381956;27;20907;-57
2022/01/08 04:33:54;;;;;;;14.63;13.17;;;2.40;42.10;;;;;;6364452;27;20254;-57
2022/01/08 04:36:56;;;;;;;13.60;12.50;;;2.40;41.60;;;;;;6385551;27;20362;-57
2022/01/08 04:40:00;;;;;;;15.60;14.00;;;2.40;41.10;;;;;;6381839;27;20513;-56
2022/01/08 04:43:03;;;;;;;14.87;13.47;;;2.20;41.90;;;;;;6373726;27;20365;-57
2022/01/08 04:46:06;;;;;;;15.03;13.63;;;2.10;41.50;;;;;;6385446;27;20322;-57
2022/01/08 04:49:09;;;;;;;14.83;13.50;;;2.40;42.00;;;;;;6370119;27;20375;-56
2022/01/08 04:52:12;;;;;;;15.20;13.77;;;2.10;42.20;;;;;;6379393;27;20231;-56
2022/01/08 04:55:17;;;;;;;15.73;14.23;;;2.30;42.30;;;;;;6380951;27;21697;-57
2022/01/08 04:58:20;;;;;;;15.90;14.40;;;2.20;41.90;;;;;;6379529;27;20313;-57
2022/01/08 05:01:22;;;;;;;16.67;14.40;;;2.20;41.40;;;;;;6385912;27;20307;-57
2022/01/08 05:04:26;;;;;;;15.37;13.97;;;2.30;41.90;;;;;;6385933;27;20238;-57
2022/01/08 05:07:30;;;;;;;15.77;14.27;;;2.30;42.00;;;;;;6377296;27;20231;-56
2022/01/08 05:10:34;;;;;;;15.10;13.50;;;2.10;42.70;;;;;;6385899;27;20271;-57
2022/01/08 05:13:38;;;;;;;16.60;14.97;;;2.20;41.80;;;;;;6380333;27;20449;-56
2022/01/08 05:16:42;;;;;;;15.27;13.77;;;2.30;42.20;;;;;;6384589;27;20844;-53
2022/01/08 05:19:49;;;;;;;15.87;14.47;;;2.40;41.90;;;;;;6382175;27;20666;-57
2022/01/08 05:22:53;;;;;;;16.37;14.70;;;2.20;41.80;;;;;;6384463;27;20238;-56
2022/01/08 05:25:57;;;;;;;16.17;14.67;;;2.30;40.80;;;;;;6385956;27;20230;-57
2022/01/08 05:29:00;;;;;;;14.70;13.40;;;2.40;39.80;;;;;;6381000;27;20610;-55
2022/01/08 05:32:03;;;;;;;15.57;13.93;;;2.60;40.40;;;;;;6382565;27;20237;-58
2022/01/08 05:35:06;;;;;;;15.00;13.70;;;2.50;40.50;;;;;;6376934;27;20326;-57
2022/01/08 05:38:09;;;;;;;15.13;13.73;;;2.20;40.80;;;;;;6381935;27;20349;-58
2022/01/08 05:41:13;;;;;;;15.67;14.07;;;2.20;40.40;;;;;;6373551;27;20224;-56
2022/01/08 05:44:16;;;;;;;15.13;13.60;;;2.30;41.00;;;;;;6380577;27;20238;-57
2022/01/08 05:47:20;;;;;;;15.63;14.17;;;2.20;41.60;;;;;;6384298;27;20321;-57
2022/01/08 05:50:23;;;;;;;15.60;14.20;;;2.10;41.80;;;;;;6380812;27;20238;-57
2022/01/08 05:53:26;;;;;;;15.17;13.80;;;2.00;41.60;;;;;;6384269;27;20243;-57
2022/01/08 05:56:30;;;;;;;16.70;14.33;;;2.30;42.50;;;;;;6383629;27;20730;-57
2022/01/08 05:59:33;;;;;;;15.87;14.33;;;2.00;42.20;;;;;;6383745;27;20263;-57
2022/01/08 06:02:37;;;;;;;15.00;13.70;;;2.10;43.20;;;;;;6384587;27;20792;-56
2022/01/08 06:05:39;;;;;;;15.83;14.33;;;1.90;43.70;;;;;;6384139;27;20313;-57
2022/01/08 06:08:42;;;;;;;16.70;14.73;;;1.90;43.30;;;;;;6376823;27;20242;-55
2022/01/08 06:11:46;;;;;;;16.53;14.57;;;2.20;43.20;;;;;;6385424;27;20921;-57
2022/01/08 06:14:49;;;;;;;16.40;14.83;;;1.90;43.50;;;;;;6379943;27;20241;-57
2022/01/08 06:17:52;;;;;;;15.27;13.63;;;2.00;42.50;;;;;;6370455;27;20238;-56
2022/01/08 06:20:55;;;;;;;15.43;13.73;;;2.10;43.50;;;;;;6353318;27;20633;-55
2022/01/08 06:23:58;;;;;;;16.40;14.77;;;2.00;43.20;;;;;;6381913;27;20226;-57
2022/01/08 06:27:03;;;;;;;16.03;14.37;;;2.00;43.90;;;;;;6380019;27;20737;-57
2022/01/08 06:30:07;;;;;;;17.40;14.50;;;1.90;44.50;;;;;;6384802;27;20234;-57
2022/01/08 06:33:10;;;;;;;16.93;15.00;;;1.90;45.10;;;;;;6379455;27;20238;-57
2022/01/08 06:36:13;;;;;;;15.47;13.87;;;2.20;44.60;;;;;;6381011;27;20748;-56
2022/01/08 06:39:17;;;;;;;16.70;15.00;;;2.20;44.50;;;;;;6375942;27;20250;-58
2022/01/08 06:42:21;;;;;;;17.30;14.50;;;2.10;45.00;;;;;;6380855;27;20230;-58
2022/01/08 06:45:24;;;;;;;16.07;14.47;;;2.20;44.80;;;;;;6380845;27;20227;-58
2022/01/08 06:48:26;;;;;;;16.63;15.03;;;2.30;43.90;;;;;;6383484;27;20241;-57
2022/01/08 06:51:29;;;;;;;15.93;14.43;;;2.40;43.30;;;;;;6381331;27;20233;-57
2022/01/08 06:54:32;;;;;;;16.50;14.90;;;2.40;43.10;;;;;;6377879;27;20230;-59
2022/01/08 06:57:36;;;;;;;17.00;15.40;;;2.10;43.40;;;;;;6378041;27;20299;-58
2022/01/08 07:00:39;;;;;;;15.80;14.30;;;2.50;43.80;;;;;;6378841;27;20255;-58
2022/01/08 07:03:42;;;;;;;17.10;14.17;;;2.50;43.80;;;;;;6383431;27;20230;-56
2022/01/08 07:06:44;;;;;;;17.07;15.27;;;2.40;43.20;;;;;;6381378;27;20237;-58
2022/01/08 07:09:47;;;;;;;16.70;15.07;;;2.20;43.10;;;;;;6383077;27;20226;-58
2022/01/08 07:12:51;;;;;;;16.93;15.23;;;2.20;43.10;;;;;;6380175;27;20230;-57
2022/01/08 07:15:54;;;;;;;18.60;15.33;;;2.20;44.20;;;;;;6375920;27;20234;-58
2022/01/08 07:18:57;;;;;;;16.60;14.90;;;2.30;42.40;;;;;;6377351;27;20237;-57
2022/01/08 07:22:00;;;;;;;17.83;14.77;;;2.30;42.30;;;;;;6384002;27;20763;-56
2022/01/08 07:25:03;;;;;;;16.23;14.13;;;2.30;42.50;;;;;;6384712;27;20235;-57
2022/01/08 07:28:07;;;;;;;15.03;13.70;;;2.40;43.00;;;;;;6382042;27;20244;-58
2022/01/08 07:31:10;;;;;;;15.13;13.63;;;2.40;40.80;;;;;;6381329;27;20289;-58
2022/01/08 07:34:13;;;;;;;15.73;14.17;;;2.20;40.80;;;;;;6382519;27;20243;-56
2022/01/08 07:37:15;;;;;;;17.00;15.20;;;2.40;41.20;;;;;;6377196;27;20732;-57
2022/01/08 07:40:19;;;;;;;16.67;14.93;;;2.40;41.00;;;;;;6379876;27;20305;-57
2022/01/08 07:43:23;;;;;;;17.10;14.53;;;2.30;42.30;;;;;;6379489;27;20234;-57
2022/01/08 07:46:26;;;;;;;16.57;14.20;;;2.20;41.90;;;;;;6381943;27;20457;-57
2022/01/08 07:49:29;;;;;;;15.63;13.93;;;2.20;40.60;;;;;;6381442;27;20248;-57
2022/01/08 07:52:32;;;;;;;17.30;15.40;;;2.20;41.70;;;;;;6383631;27;20843;-56
2022/01/08 07:55:34;;;;;;;15.97;14.37;;;2.30;41.00;;;;;;6386499;27;20243;-58
2022/01/08 07:58:38;;;;;;;17.97;16.17;;;2.30;42.40;;;;;;6377274;27;20569;-57
2022/01/08 08:01:41;;;;;;;17.83;16.03;;;2.40;41.50;;;;;;6383652;27;20608;-59
2022/01/08 08:04:45;;;;;;;20.23;16.73;;;2.60;41.00;;;;;;6377446;27;20230;-56
2022/01/08 08:07:48;;;;;;;19.03;16.73;;;2.30;41.20;;;;;;6388273;27;20588;-58
2022/01/08 08:10:51;;;;;;;17.20;15.53;;;2.60;40.30;;;;;;6391027;27;20229;-56
2022/01/08 08:13:55;;;;;;;17.93;16.20;;;2.40;40.00;;;;;;6384566;27;20321;-57
2022/01/08 08:16:58;;;;;;;17.93;16.07;;;2.50;41.10;;;;;;6381823;27;20238;-56
2022/01/08 08:20:01;;;;;;;17.23;15.50;;;2.40;39.90;;;;;;6379960;27;20275;-56
2022/01/08 08:23:04;;;;;;;17.63;15.83;;;2.50;40.20;;;;;;6386055;27;20280;-58
2022/01/08 08:26:06;;;;;;;17.50;15.67;;;2.40;41.30;;;;;;6387980;27;20234;-56
2022/01/08 08:29:10;;;;;;;18.93;17.10;;;2.30;41.30;;;;;;6384140;27;20363;-57
2022/01/08 08:32:13;;;;;;;17.70;15.80;;;2.50;42.40;;;;;;6387057;27;20601;-57
2022/01/08 08:35:18;;;;;;;18.63;16.63;;;2.40;41.90;;;;;;6387843;27;20362;-58
2022/01/08 08:38:21;;;;;;;17.70;15.83;;;2.60;42.00;;;;;;6386301;27;20245;-57
2022/01/08 08:41:23;;;;;;;20.27;18.07;;;2.30;40.40;;;;;;6387293;27;20283;-57
2022/01/08 08:44:28;;;;;;;18.23;16.33;;;2.10;41.60;;;;;;6386104;27;20314;-58
2022/01/08 08:47:31;;;;;;;20.33;16.80;;;2.50;41.80;;;;;;6398769;27;20242;-57
2022/01/08 08:50:34;;;;;;;16.67;14.97;;;2.20;41.50;;;;;;6387441;27;20238;-57
2022/01/08 08:53:37;;;;;;;17.70;15.93;;;2.40;41.90;;;;;;6383485;27;20274;-57
2022/01/08 08:56:42;;;;;;;18.17;16.07;;;2.50;42.00;;;;;;6385984;27;20374;-57
2022/01/08 08:59:46;;;;;;;19.20;17.23;;;2.20;41.40;;;;;;6381970;27;20314;-57
2022/01/08 09:02:49;;;;;;;17.77;15.97;;;2.30;41.20;;;;;;6384105;27;20762;-57
2022/01/08 09:05:52;;;;;;;17.73;15.87;;;2.50;42.10;;;;;;6388262;27;20241;-58
2022/01/08 09:08:55;;;;;;;18.53;16.37;;;2.40;41.40;;;;;;6386574;27;20321;-62
2022/01/08 09:11:57;;;;;;;17.13;15.43;;;2.50;40.40;;;;;;6377614;27;20645;-56
2022/01/08 09:15:02;;;;;;;18.43;16.53;;;2.30;40.20;;;;;;6382251;27;20328;-57
2022/01/08 09:18:07;;;;;;;18.90;16.80;;;2.40;40.60;;;;;;6384268;27;20312;-58
2022/01/08 09:21:10;;;;;;;17.90;15.53;;;2.50;42.50;;;;;;6382837;27;20447;-57
2022/01/08 09:24:14;;;;;;;17.50;15.73;;;2.50;44.00;;;;;;6380800;27;20290;-57
2022/01/08 09:27:17;;;;;;;19.17;16.53;;;2.40;44.20;;;;;;6385791;27;20319;-57
2022/01/08 09:30:21;;;;;;;17.17;15.47;;;2.60;40.30;;;;;;6378216;27;20282;-57
2022/01/08 09:33:24;;;;;;;17.70;16.00;;;2.80;39.60;;;;;;6384345;27;20322;-56
2022/01/08 09:36:27;;;;;;;17.33;15.53;;;2.50;38.50;;;;;;6384431;27;20235;-56
2022/01/08 09:39:30;;;;;;;16.13;14.53;;;2.70;38.30;;;;;;6384176;27;20250;-56
2022/01/08 09:42:33;;;;;;;16.90;15.20;;;2.50;39.10;;;;;;6381209;27;20238;-58
2022/01/08 09:45:37;;;;;;;17.63;15.33;;;2.70;39.30;;;;;;6381070;27;20737;-57
2022/01/08 09:48:40;;;;;;;17.60;15.37;;;2.80;39.50;;;;;;6381740;27;20254;-57
2022/01/08 09:51:43;;;;;;;16.53;14.80;;;2.60;38.00;;;;;;6384567;27;20241;-57
2022/01/08 09:54:46;;;;;;;16.10;14.60;;;2.80;38.30;;;;;;6384537;27;20234;-58
2022/01/08 09:57:49;;;;;;;17.40;15.67;;;3.00;36.60;;;;;;6386266;27;20242;-58
2022/01/08 10:00:53;;;;;;;19.60;16.63;;;2.70;36.30;;;;;;6384801;27;20234;-56
2022/01/08 10:03:58;;;;;;;16.20;14.60;;;2.80;36.20;;;;;;6383138;27;20756;-57
2022/01/08 10:07:15;;;;;;;17.20;15.47;;;2.90;35.10;;;;;;6385037;27;20687;-56
2022/01/08 10:10:18;;;;;;;16.97;15.33;;;3.00;35.20;;;;;;6382155;27;20302;-57
2022/01/08 10:13:23;;;;;;;16.90;15.27;;;2.60;36.60;;;;;;6385685;27;20763;-58
2022/01/08 10:19:48;;;;;;;17.37;15.63;;;2.80;37.90;;;;;;6377053;27;20219;-58
2022/01/08 10:22:59;;;;;;;17.47;15.77;;;2.80;36.10;;;;;;6377276;27;20348;-58
2022/01/08 10:26:04;;;;;;;18.37;16.50;;;2.70;35.50;;;;;;6384885;27;20630;-57
2022/01/08 10:29:11;;;;;;;17.53;15.83;;;2.60;36.60;;;;;;6378372;27;20227;-57
2022/01/08 10:32:25;;;;;;;18.03;16.23;;;2.50;37.90;;;;;;6385176;27;20223;-57
2022/01/08 10:35:49;;;;;;;18.40;16.43;;;2.50;38.10;;;;;;6379176;27;20235;-57
2022/01/08 10:38:53;;;;;;;17.80;16.00;;;2.70;39.20;;;;;;6384141;27;20491;-57
2022/01/08 10:41:57;;;;;;;20.10;17.30;;;2.70;37.70;;;;;;6376156;27;20318;-57
2022/01/08 10:45:15;;;;;;;17.63;15.83;;;2.50;37.30;;;;;;6376965;27;20524;-56
2022/01/08 10:48:30;;;;;;;17.30;15.57;;;2.70;39.10;;;;;;6383962;27;20285;-57
2022/01/08 10:51:38;;;;;;;18.03;16.17;;;3.00;38.80;;;;;;6384151;27;20541;-58
2022/01/08 10:54:42;;;;;;;17.63;15.47;;;3.20;38.50;;;;;;6379860;27;20319;-56
2022/01/08 10:57:47;;;;;;;17.83;15.90;;;3.30;35.70;;;;;;6384621;27;20230;-57
2022/01/08 11:00:50;;;;;;;15.43;13.93;;;3.40;32.70;;;;;;6384362;27;20878;-59
2022/01/08 11:03:54;;;;;;;16.03;14.33;;;3.30;25.50;;;;;;6383427;27;20367;-57
2022/01/08 11:06:59;;;;;;;18.30;15.27;;;3.70;23.20;;;;;;6381824;27;20986;-57
2022/01/08 11:10:06;;;;;;;15.83;14.03;;;3.60;25.40;;;;;;6383412;27;20234;-57
2022/01/08 11:13:13;;;;;;;15.60;14.20;;;3.70;24.70;;;;;;6383131;27;20250;-57
2022/01/08 11:16:16;;;;;;;16.17;14.73;;;3.80;23.90;;;;;;6379870;27;20659;-57
2022/01/08 11:19:21;;;;;;;16.53;14.83;;;3.60;23.40;;;;;;6382720;27;20255;-57
2022/01/08 11:22:25;;;;;;;15.17;13.53;;;3.70;23.40;;;;;;6379517;27;20527;-56
2022/01/08 11:25:30;;;;;;;15.20;13.67;;;4.00;20.40;;;;;;6378792;27;20318;-56
2022/01/08 11:28:37;;;;;;;13.80;12.57;;;4.10;20.80;;;;;;6374159;27;20282;-57
2022/01/08 11:31:40;;;;;;;14.20;12.93;;;4.40;18.10;;;;;;6376320;27;20639;-56
2022/01/08 11:34:45;;;;;;;14.13;12.77;;;4.20;16.60;;;;;;6384041;27;20362;-59
2022/01/08 11:37:50;;;;;;;14.07;12.57;;;4.10;16.80;;;;;;6377121;27;20586;-56
2022/01/08 11:40:54;;;;;;;13.33;12.00;;;4.00;14.40;;;;;;6379039;27;20846;-58
2022/01/08 11:43:56;;;;;;;12.77;11.67;;;4.00;14.30;;;;;;6382193;27;20240;-57
2022/01/08 11:47:00;;;;;;;13.57;11.77;;;3.70;13.10;;;;;;6382493;27;20239;-57
2022/01/08 11:50:06;;;;;;;11.93;10.80;;;3.60;14.90;;;;;;6380668;27;20222;-57
2022/01/08 11:53:18;;;;;;;11.53;10.53;;;3.80;14.10;;;;;;6384561;27;20238;-57
2022/01/08 11:56:26;;;;;;;12.73;11.50;;;3.60;8.20;;;;;;6369797;27;20727;-57
2022/01/08 11:59:32;;;;;;;11.33;10.43;;;3.40;6.50;;;;;;6384972;27;20756;-58
2022/01/08 12:02:39;;;;;;;11.93;10.73;;;3.60;7.50;;;;;;6383047;27;20222;-56
2022/01/08 12:05:43;;;;;;;12.00;10.27;;;3.60;7.20;;;;;;6384288;27;20380;-59
2022/01/08 12:09:07;;;;;;;11.90;10.70;;;3.40;5.80;;;;;;6383305;27;20462;-57
2022/01/08 12:12:10;;;;;;;10.80;9.90;;;3.60;8.80;;;;;;6383159;27;20235;-57
2022/01/08 12:15:13;;;;;;;10.97;9.87;;;3.60;5.90;;;;;;6384829;27;20719;-58
2022/01/08 12:18:20;;;;;;;11.40;9.93;;;3.60;5.30;;;;;;6383088;27;20230;-59
2022/01/08 12:21:32;;;;;;;11.13;10.03;;;3.60;5.00;;;;;;6382151;27;20626;-58
2022/01/08 12:24:36;;;;;;;11.70;10.60;;;3.50;5.90;;;;;;6385820;27;20877;-58
2022/01/08 12:27:44;;;;;;;10.63;9.63;;;3.50;5.80;;;;;;6380204;27;20501;-58
2022/01/08 12:30:47;;;;;;;11.17;10.13;;;3.50;5.90;;;;;;6385342;27;20222;-57
2022/01/08 12:34:23;;;;;;;11.00;10.03;;;3.40;8.10;;;;;;6382456;27;20334;-57
2022/01/08 12:37:37;;;;;;;10.20;9.30;;;3.40;5.80;;;;;;6380648;27;20235;-57
2022/01/08 12:40:41;;;;;;;11.20;10.20;;;3.60;3.00;;;;;;6385025;27;20241;-56
2022/01/08 12:43:44;;;;;;;10.73;9.63;;;3.40;2.40;;;;;;6380861;27;20317;-59
2022/01/08 12:46:46;;;;;;;10.43;9.43;;;3.60;4.30;;;;;;6383870;27;20234;-57
2022/01/08 12:50:24;;;;;;;11.13;10.20;;;3.60;2.30;;;;;;6375206;27;20582;-57
2022/01/08 12:53:30;;;;;;;11.97;10.87;;;3.70;2.00;;;;;;6375838;27;20736;-58
2022/01/08 12:56:33;;;;;;;11.83;10.83;;;3.90;2.60;;;;;;6384347;27;20726;-58
2022/01/08 12:59:38;;;;;;;12.77;10.20;;;3.70;3.20;;;;;;6381896;27;20314;-58
2022/01/08 13:02:47;;;;;;;11.63;10.60;;;3.90;2.00;;;;;;6378104;27;20242;-58
2022/01/08 13:05:50;;;;;;;13.27;10.23;;;3.80;1.50;;;;;;6382218;27;20237;-58
2022/01/08 13:08:56;;;;;;;11.67;10.60;;;3.80;1.00;;;;;;6383056;27;20787;-58
2022/01/08 13:12:00;;;;;;;12.17;10.87;;;4.20;1.00;;;;;;6383665;27;20497;-58
2022/01/08 13:15:04;;;;;;;11.70;10.70;;;3.90;1.00;;;;;;6361125;27;20378;-59
2022/01/08 13:18:16;;;;;;;11.23;10.20;;;3.90;1.00;;;;;;6357607;27;20285;-58
2022/01/08 13:21:20;;;;;;;10.07;9.23;;;4.00;1.00;;;;;;6350470;27;20283;-57
2022/01/08 13:24:27;;;;;;;11.97;10.80;;;4.20;1.00;;;;;;6356119;27;20308;-57
2022/01/08 13:27:30;;;;;;;11.10;9.73;;;4.20;1.00;;;;;;6362599;27;20238;-57
2022/01/08 13:30:33;;;;;;;12.23;11.13;;;4.20;1.00;;;;;;6355372;27;20309;-57
2022/01/08 13:33:36;;;;;;;11.10;10.17;;;4.50;1.00;;;;;;6367518;27;20587;-59
2022/01/08 13:36:58;;;;;;;11.60;10.40;;;4.20;2.30;;;;;;6362256;27;21022;-57
2022/01/08 13:40:05;;;;;;;11.20;10.10;;;4.10;1.00;;;;;;6357450;27;20231;-58
2022/01/08 13:43:08;;;;;;;11.83;10.60;;;3.80;2.60;;;;;;6362184;27;20734;-61
2022/01/08 13:46:10;;;;;;;12.97;11.07;;;3.80;6.10;;;;;;6361603;27;20323;-57
2022/01/08 13:49:14;;;;;;;12.47;10.70;;;3.70;6.20;;;;;;6350573;27;20441;-57
2022/01/08 13:52:22;;;;;;;12.27;11.17;;;3.70;6.20;;;;;;6355022;27;20553;-57
2022/01/08 13:55:29;;;;;;;13.20;11.43;;;3.50;7.40;;;;;;6351761;27;20239;-58
2022/01/08 13:58:32;;;;;;;11.07;10.00;;;3.80;8.20;;;;;;6356586;27;20291;-56
2022/01/08 14:01:45;;;;;;;12.90;10.57;;;3.60;5.30;;;;;;6353386;27;20235;-58
2022/01/08 14:04:53;;;;;;;14.80;10.37;;;3.80;6.10;;;;;;6322204;27;20241;-58
2022/01/08 14:08:06;;;;;;;15.23;11.53;;;3.60;6.00;;;;;;6352272;27;20661;-57
2022/01/08 14:11:21;;;;;;;12.50;10.80;;;3.70;7.40;;;;;;6358010;27;20235;-58
2022/01/08 14:14:23;;;;;;;13.67;11.10;;;3.70;7.30;;;;;;6348726;27;20234;-57
2022/01/08 14:17:29;;;;;;;15.03;13.50;;;3.90;8.90;;;;;;6361889;27;20563;-58
2022/01/08 14:20:32;;;;;;;17.07;14.23;;;3.70;10.70;;;;;;6377631;27;20227;-58
2022/01/08 14:23:35;;;;;;;14.80;13.30;;;3.70;12.50;;;;;;6375010;27;20222;-58
2022/01/08 14:26:39;;;;;;;15.10;13.57;;;3.60;12.80;;;;;;6384774;27;20571;-58
2022/01/08 14:29:43;;;;;;;16.30;14.20;;;3.60;14.00;;;;;;6378451;27;20824;-57
2022/01/08 14:32:46;;;;;;;16.33;14.43;;;3.50;15.70;;;;;;6381730;27;20314;-57
2022/01/08 14:35:59;;;;;;;15.30;13.77;;;3.70;15.50;;;;;;6376336;27;20636;-58
2022/01/08 14:39:02;;;;;;;16.63;14.83;;;3.90;15.80;;;;;;6369673;27;20367;-58
2022/01/08 14:42:08;;;;;;;16.27;13.90;;;3.50;18.10;;;;;;6374877;27;20610;-58
2022/01/08 14:45:18;;;;;;;15.33;13.93;;;3.50;18.70;;;;;;6382330;27;20962;-57
2022/01/08 14:48:23;;;;;;;16.17;13.30;;;3.30;18.80;;;;;;6383724;27;20288;-59
2022/01/08 14:51:29;;;;;;;16.77;14.77;;;3.60;18.00;;;;;;6383386;27;20597;-57
2022/01/08 14:54:35;;;;;;;15.23;13.63;;;3.70;18.60;;;;;;6385929;27;20386;-58
2022/01/08 14:57:39;;;;;;;15.13;12.23;;;3.90;18.50;;;;;;6381686;27;20731;-60
2022/01/08 15:00:43;;;;;;;14.83;13.23;;;3.80;16.30;;;;;;6385902;27;20250;-57
2022/01/08 15:03:46;;;;;;;15.67;14.07;;;3.90;15.80;;;;;;6385130;27;20234;-58
2022/01/08 15:06:51;;;;;;;16.83;12.97;;;3.70;16.80;;;;;;6383002;27;20532;-57
2022/01/08 15:09:54;;;;;;;14.00;12.03;;;3.40;17.00;;;;;;6385091;27;20529;-57
2022/01/08 15:12:58;;;;;;;14.67;12.00;;;3.80;15.80;;;;;;6383158;27;20317;-58
2022/01/08 15:16:04;;;;;;;12.97;11.67;;;3.70;14.20;;;;;;6382975;27;20234;-58
2022/01/08 15:19:07;;;;;;;12.10;10.97;;;3.70;13.70;;;;;;6378705;27;20307;-58
2022/01/08 15:22:09;;;;;;;15.93;11.53;;;3.90;13.50;;;;;;6383691;27;20821;-59
2022/01/08 15:25:12;;;;;;;12.23;11.23;;;3.90;13.40;;;;;;6384622;27;20241;-56
2022/01/08 15:28:16;;;;;;;12.47;11.17;;;3.60;11.90;;;;;;6380572;27;20718;-58
2022/01/08 15:31:19;;;;;;;13.00;11.57;;;3.60;13.00;;;;;;6380931;27;20753;-58
2022/01/08 15:34:22;;;;;;;11.80;10.90;;;3.60;13.00;;;;;;6376478;27;20263;-57
2022/01/08 15:37:25;;;;;;;12.90;11.50;;;3.40;12.10;;;;;;6385305;27;20509;-58
2022/01/08 15:40:28;;;;;;;12.00;10.80;;;3.60;12.80;;;;;;6384808;27;20234;-56
2022/01/08 15:43:33;;;;;;;12.90;11.60;;;3.50;11.10;;;;;;6377719;27;20663;-57
2022/01/08 15:46:37;;;;;;;15.20;11.80;;;3.70;11.30;;;;;;6384875;27;20249;-58
2022/01/08 15:49:40;;;;;;;15.03;11.87;;;3.60;11.70;;;;;;6385362;27;20433;-58
2022/01/08 15:52:43;;;;;;;13.00;10.90;;;3.60;11.30;;;;;;6384207;27;20781;-56
2022/01/08 15:55:46;;;;;;;13.07;11.50;;;3.60;10.90;;;;;;6355718;27;20323;-56
2022/01/08 15:58:50;;;;;;;11.93;10.83;;;3.40;11.30;;;;;;6382282;27;20230;-58
2022/01/08 16:01:53;;;;;;;12.43;10.97;;;3.50;11.00;;;;;;6379960;27;20309;-58
2022/01/08 16:04:55;;;;;;;12.37;10.73;;;3.40;10.60;;;;;;6382893;27;20329;-57
2022/01/08 16:07:59;;;;;;;15.17;10.77;;;3.40;11.00;;;;;;6383348;27;20587;-58